sensor_id;sensor_type;location;lat;lon;timestamp;temperature;humidity
55634;DHT22;41504;53.162;6.788;2023-02-19T00:01:18;9.20;95.50
55634;DHT22;41504;53.162;6.788;2023-02-19T00:03:51;9.20;95.50
55634;DHT22;41504;53.162;6.788;2023-02-19T00:06:19;9.20;95.50
55634;DHT22;41504;53.162;6.788;2023-02-19T00:08:45;9.20;95.50
55634;DHT22;41504;53.162;6.788;2023-02-19T00:11:13;9.20;95.50
55634;DHT22;41504;53.162;6.788;2023-02-19T00:13:44;9.20;95.60
55634;DHT22;41504;53.162;6.788;2023-02-19T00:16:16;9.20;95.60
55634;DHT22;41504;53.162;6.788;2023-02-19T00:18:42;9.20;95.60
55634;DHT22;41504;53.162;6.788;2023-02-19T00:21:09;9.20;95.60
55634;DHT22;41504;53.162;6.788;2023-02-19T00:23:35;9.10;95.60
55634;DHT22;41504;53.162;6.788;2023-02-19T00:26:09;9.10;95.60
55634;DHT22;41504;53.162;6.788;2023-02-19T00:28:35;9.10;95.60
55634;DHT22;41504;53.162;6.788;2023-02-19T00:31:12;9.10;95.70
55634;DHT22;41504;53.162;6.788;2023-02-19T00:33:40;9.10;95.70
55634;DHT22;41504;53.162;6.788;2023-02-19T00:36:06;9.10;95.70
55634;DHT22;41504;53.162;6.788;2023-02-19T00:38:34;9.10;95.70
55634;DHT22;41504;53.162;6.788;2023-02-19T00:41:00;9.10;95.70
55634;DHT22;41504;53.162;6.788;2023-02-19T00:43:26;9.10;95.70
55634;DHT22;41504;53.162;6.788;2023-02-19T00:45:52;9.10;95.70
55634;DHT22;41504;53.162;6.788;2023-02-19T00:48:18;9.10;95.70
55634;DHT22;41504;53.162;6.788;2023-02-19T00:50:43;9.00;95.70
55634;DHT22;41504;53.162;6.788;2023-02-19T00:53:09;9.10;95.80
55634;DHT22;41504;53.162;6.788;2023-02-19T00:55:35;9.10;95.80
55634;DHT22;41504;53.162;6.788;2023-02-19T00:58:01;9.00;95.70
55634;DHT22;41504;53.162;6.788;2023-02-19T01:00:26;9.10;95.80
55634;DHT22;41504;53.162;6.788;2023-02-19T01:02:52;9.10;95.80
55634;DHT22;41504;53.162;6.788;2023-02-19T01:05:18;9.10;95.80
55634;DHT22;41504;53.162;6.788;2023-02-19T01:07:44;9.00;95.80
55634;DHT22;41504;53.162;6.788;2023-02-19T01:10:09;9.00;95.80
55634;DHT22;41504;53.162;6.788;2023-02-19T01:12:35;9.00;95.90
55634;DHT22;41504;53.162;6.788;2023-02-19T01:15:01;9.00;95.90
55634;DHT22;41504;53.162;6.788;2023-02-19T01:17:26;9.00;95.90
55634;DHT22;41504;53.162;6.788;2023-02-19T01:19:52;9.10;96.00
55634;DHT22;41504;53.162;6.788;2023-02-19T01:22:18;9.00;95.90
55634;DHT22;41504;53.162;6.788;2023-02-19T01:24:43;9.00;95.90
55634;DHT22;41504;53.162;6.788;2023-02-19T01:27:09;9.10;96.00
55634;DHT22;41504;53.162;6.788;2023-02-19T01:29:35;9.00;95.90
55634;DHT22;41504;53.162;6.788;2023-02-19T01:32:01;9.00;95.90
55634;DHT22;41504;53.162;6.788;2023-02-19T01:34:26;9.00;96.00
55634;DHT22;41504;53.162;6.788;2023-02-19T01:36:54;9.00;96.00
55634;DHT22;41504;53.162;6.788;2023-02-19T01:39:20;8.90;96.00
55634;DHT22;41504;53.162;6.788;2023-02-19T01:41:45;9.00;96.10
55634;DHT22;41504;53.162;6.788;2023-02-19T01:46:41;9.00;96.10
55634;DHT22;41504;53.162;6.788;2023-02-19T01:51:51;8.70;95.50
55634;DHT22;41504;53.162;6.788;2023-02-19T01:54:21;8.50;95.50
55634;DHT22;41504;53.162;6.788;2023-02-19T01:56:49;8.30;95.50
55634;DHT22;41504;53.162;6.788;2023-02-19T01:59:16;8.30;95.70
55634;DHT22;41504;53.162;6.788;2023-02-19T02:01:42;8.10;95.50
55634;DHT22;41504;53.162;6.788;2023-02-19T02:04:09;8.00;95.50
55634;DHT22;41504;53.162;6.788;2023-02-19T02:06:48;7.90;95.70
55634;DHT22;41504;53.162;6.788;2023-02-19T02:09:17;7.90;95.80
55634;DHT22;41504;53.162;6.788;2023-02-19T02:12:02;7.90;95.70
55634;DHT22;41504;53.162;6.788;2023-02-19T02:14:30;7.80;95.70
55634;DHT22;41504;53.162;6.788;2023-02-19T02:17:27;7.80;95.70
55634;DHT22;41504;53.162;6.788;2023-02-19T02:20:17;7.80;95.70
55634;DHT22;41504;53.162;6.788;2023-02-19T02:31:44;7.60;95.40
55634;DHT22;41504;53.162;6.788;2023-02-19T02:34:18;7.60;95.50
55634;DHT22;41504;53.162;6.788;2023-02-19T02:36:48;7.50;95.40
55634;DHT22;41504;53.162;6.788;2023-02-19T02:39:18;7.50;95.40
55634;DHT22;41504;53.162;6.788;2023-02-19T02:41:49;7.40;95.50
55634;DHT22;41504;53.162;6.788;2023-02-19T02:44:36;7.40;95.60
55634;DHT22;41504;53.162;6.788;2023-02-19T02:47:04;7.40;95.60
55634;DHT22;41504;53.162;6.788;2023-02-19T02:49:30;7.40;95.50
55634;DHT22;41504;53.162;6.788;2023-02-19T02:51:58;7.30;95.40
55634;DHT22;41504;53.162;6.788;2023-02-19T02:54:45;7.30;95.50
55634;DHT22;41504;53.162;6.788;2023-02-19T02:57:29;7.30;95.50
55634;DHT22;41504;53.162;6.788;2023-02-19T02:59:55;7.20;95.50
55634;DHT22;41504;53.162;6.788;2023-02-19T03:02:27;7.20;95.70
55634;DHT22;41504;53.162;6.788;2023-02-19T03:07:52;7.20;95.50
55634;DHT22;41504;53.162;6.788;2023-02-19T03:10:23;7.30;95.70
55634;DHT22;41504;53.162;6.788;2023-02-19T03:12:50;7.40;95.70
55634;DHT22;41504;53.162;6.788;2023-02-19T03:15:42;7.40;95.60
55634;DHT22;41504;53.162;6.788;2023-02-19T03:18:48;7.40;95.50
55634;DHT22;41504;53.162;6.788;2023-02-19T03:21:35;7.50;95.50
55634;DHT22;41504;53.162;6.788;2023-02-19T03:24:04;7.50;95.40
55634;DHT22;41504;53.162;6.788;2023-02-19T03:26:50;7.50;95.40
55634;DHT22;41504;53.162;6.788;2023-02-19T03:29:21;7.60;95.40
55634;DHT22;41504;53.162;6.788;2023-02-19T03:31:50;7.50;95.40
55634;DHT22;41504;53.162;6.788;2023-02-19T03:34:24;7.50;95.30
55634;DHT22;41504;53.162;6.788;2023-02-19T03:36:59;7.60;95.30
55634;DHT22;41504;53.162;6.788;2023-02-19T03:39:26;7.60;95.30
55634;DHT22;41504;53.162;6.788;2023-02-19T03:42:06;7.60;95.20
55634;DHT22;41504;53.162;6.788;2023-02-19T03:47:47;7.60;95.10
55634;DHT22;41504;53.162;6.788;2023-02-19T03:56:28;7.40;95.00
55634;DHT22;41504;53.162;6.788;2023-02-19T04:01:43;7.40;95.10
55634;DHT22;41504;53.162;6.788;2023-02-19T04:04:16;7.40;95.00
55634;DHT22;41504;53.162;6.788;2023-02-19T04:06:45;7.40;95.00
55634;DHT22;41504;53.162;6.788;2023-02-19T04:09:18;7.40;95.00
55634;DHT22;41504;53.162;6.788;2023-02-19T04:11:46;7.40;95.00
55634;DHT22;41504;53.162;6.788;2023-02-19T04:14:35;7.40;94.90
55634;DHT22;41504;53.162;6.788;2023-02-19T04:17:07;7.40;94.90
55634;DHT22;41504;53.162;6.788;2023-02-19T04:19:36;7.40;94.90
55634;DHT22;41504;53.162;6.788;2023-02-19T04:22:05;7.30;94.80
55634;DHT22;41504;53.162;6.788;2023-02-19T04:24:46;7.30;94.80
55634;DHT22;41504;53.162;6.788;2023-02-19T04:27:12;7.30;94.80
55634;DHT22;41504;53.162;6.788;2023-02-19T04:29:37;7.30;94.80
55634;DHT22;41504;53.162;6.788;2023-02-19T04:32:03;7.30;94.80
55634;DHT22;41504;53.162;6.788;2023-02-19T04:34:29;7.20;94.70
55634;DHT22;41504;53.162;6.788;2023-02-19T04:36:55;7.20;94.80
55634;DHT22;41504;53.162;6.788;2023-02-19T04:39:21;7.20;94.80
55634;DHT22;41504;53.162;6.788;2023-02-19T04:41:46;7.20;94.80
55634;DHT22;41504;53.162;6.788;2023-02-19T04:44:12;7.20;94.70
55634;DHT22;41504;53.162;6.788;2023-02-19T04:46:39;7.20;94.60
55634;DHT22;41504;53.162;6.788;2023-02-19T04:49:05;7.10;94.50
55634;DHT22;41504;53.162;6.788;2023-02-19T04:51:30;7.00;94.60
55634;DHT22;41504;53.162;6.788;2023-02-19T04:53:56;7.00;94.50
55634;DHT22;41504;53.162;6.788;2023-02-19T04:56:22;6.90;94.50
55634;DHT22;41504;53.162;6.788;2023-02-19T04:58:48;6.80;94.50
55634;DHT22;41504;53.162;6.788;2023-02-19T05:01:13;6.70;94.40
55634;DHT22;41504;53.162;6.788;2023-02-19T05:03:39;6.70;94.60
55634;DHT22;41504;53.162;6.788;2023-02-19T05:06:10;6.70;94.60
55634;DHT22;41504;53.162;6.788;2023-02-19T05:08:36;6.60;94.60
55634;DHT22;41504;53.162;6.788;2023-02-19T05:11:03;6.70;94.70
55634;DHT22;41504;53.162;6.788;2023-02-19T05:13:30;6.70;94.60
55634;DHT22;41504;53.162;6.788;2023-02-19T05:16:02;6.70;94.50
55634;DHT22;41504;53.162;6.788;2023-02-19T05:18:29;6.60;94.50
55634;DHT22;41504;53.162;6.788;2023-02-19T05:20:56;6.60;94.50
55634;DHT22;41504;53.162;6.788;2023-02-19T05:23:22;6.60;94.50
55634;DHT22;41504;53.162;6.788;2023-02-19T05:25:48;6.60;94.50
55634;DHT22;41504;53.162;6.788;2023-02-19T05:28:14;6.50;94.60
55634;DHT22;41504;53.162;6.788;2023-02-19T05:30:52;6.50;94.60
55634;DHT22;41504;53.162;6.788;2023-02-19T05:33:19;6.50;94.70
55634;DHT22;41504;53.162;6.788;2023-02-19T05:35:48;6.50;94.60
55634;DHT22;41504;53.162;6.788;2023-02-19T05:38:15;6.50;94.60
55634;DHT22;41504;53.162;6.788;2023-02-19T05:40:41;6.50;94.60
55634;DHT22;41504;53.162;6.788;2023-02-19T05:43:07;6.50;94.60
55634;DHT22;41504;53.162;6.788;2023-02-19T05:45:33;6.40;94.40
55634;DHT22;41504;53.162;6.788;2023-02-19T05:48:00;6.40;94.60
55634;DHT22;41504;53.162;6.788;2023-02-19T05:50:26;6.30;94.60
55634;DHT22;41504;53.162;6.788;2023-02-19T05:52:52;6.30;94.60
55634;DHT22;41504;53.162;6.788;2023-02-19T05:55:18;6.30;94.60
55634;DHT22;41504;53.162;6.788;2023-02-19T05:57:46;6.30;94.60
55634;DHT22;41504;53.162;6.788;2023-02-19T06:00:14;6.40;94.60
55634;DHT22;41504;53.162;6.788;2023-02-19T06:02:41;6.30;94.50
55634;DHT22;41504;53.162;6.788;2023-02-19T06:05:07;6.30;94.50
55634;DHT22;41504;53.162;6.788;2023-02-19T06:07:34;6.30;94.60
55634;DHT22;41504;53.162;6.788;2023-02-19T06:10:00;6.30;94.60
55634;DHT22;41504;53.162;6.788;2023-02-19T06:12:26;6.30;94.60
55634;DHT22;41504;53.162;6.788;2023-02-19T06:14:51;6.40;94.60
55634;DHT22;41504;53.162;6.788;2023-02-19T06:17:17;6.40;94.60
55634;DHT22;41504;53.162;6.788;2023-02-19T06:19:43;6.40;94.40
55634;DHT22;41504;53.162;6.788;2023-02-19T06:22:09;6.30;94.40
55634;DHT22;41504;53.162;6.788;2023-02-19T06:24:35;6.30;94.40
55634;DHT22;41504;53.162;6.788;2023-02-19T06:27:06;6.30;94.40
55634;DHT22;41504;53.162;6.788;2023-02-19T06:29:32;6.30;94.40
55634;DHT22;41504;53.162;6.788;2023-02-19T06:31:58;6.30;94.30
55634;DHT22;41504;53.162;6.788;2023-02-19T06:34:24;6.30;94.40
55634;DHT22;41504;53.162;6.788;2023-02-19T06:36:50;6.30;94.40
55634;DHT22;41504;53.162;6.788;2023-02-19T06:39:16;6.30;94.30
55634;DHT22;41504;53.162;6.788;2023-02-19T06:41:42;6.20;94.30
55634;DHT22;41504;53.162;6.788;2023-02-19T06:44:08;6.30;94.30
55634;DHT22;41504;53.162;6.788;2023-02-19T06:46:34;6.20;94.20
55634;DHT22;41504;53.162;6.788;2023-02-19T06:49:00;6.20;94.20
55634;DHT22;41504;53.162;6.788;2023-02-19T06:51:27;6.10;94.40
55634;DHT22;41504;53.162;6.788;2023-02-19T06:53:54;6.10;94.40
55634;DHT22;41504;53.162;6.788;2023-02-19T06:58:47;6.20;94.40
55634;DHT22;41504;53.162;6.788;2023-02-19T07:01:12;6.20;94.20
55634;DHT22;41504;53.162;6.788;2023-02-19T07:03:38;6.20;94.30
55634;DHT22;41504;53.162;6.788;2023-02-19T07:06:04;6.10;94.20
55634;DHT22;41504;53.162;6.788;2023-02-19T07:08:30;6.10;94.20
55634;DHT22;41504;53.162;6.788;2023-02-19T07:10:57;6.10;94.30
55634;DHT22;41504;53.162;6.788;2023-02-19T07:13:24;6.10;94.30
55634;DHT22;41504;53.162;6.788;2023-02-19T07:15:56;6.10;94.30
55634;DHT22;41504;53.162;6.788;2023-02-19T07:18:22;6.10;94.20
55634;DHT22;41504;53.162;6.788;2023-02-19T07:20:47;6.00;94.20
55634;DHT22;41504;53.162;6.788;2023-02-19T07:23:13;6.00;94.30
55634;DHT22;41504;53.162;6.788;2023-02-19T07:25:39;6.00;94.30
55634;DHT22;41504;53.162;6.788;2023-02-19T07:28:05;5.90;94.30
55634;DHT22;41504;53.162;6.788;2023-02-19T07:30:31;5.80;94.20
55634;DHT22;41504;53.162;6.788;2023-02-19T07:32:56;5.90;94.40
55634;DHT22;41504;53.162;6.788;2023-02-19T07:35:22;5.80;94.30
55634;DHT22;41504;53.162;6.788;2023-02-19T07:37:47;5.80;94.30
55634;DHT22;41504;53.162;6.788;2023-02-19T07:40:13;5.80;94.40
55634;DHT22;41504;53.162;6.788;2023-02-19T07:42:39;5.90;94.40
55634;DHT22;41504;53.162;6.788;2023-02-19T07:45:05;6.00;94.40
55634;DHT22;41504;53.162;6.788;2023-02-19T07:47:31;6.00;94.30
55634;DHT22;41504;53.162;6.788;2023-02-19T07:49:56;6.10;94.30
55634;DHT22;41504;53.162;6.788;2023-02-19T07:52:22;6.10;94.20
55634;DHT22;41504;53.162;6.788;2023-02-19T07:54:48;6.10;94.20
55634;DHT22;41504;53.162;6.788;2023-02-19T07:57:14;6.30;94.20
55634;DHT22;41504;53.162;6.788;2023-02-19T07:59:40;6.20;94.10
55634;DHT22;41504;53.162;6.788;2023-02-19T08:02:16;6.20;94.10
55634;DHT22;41504;53.162;6.788;2023-02-19T08:05:00;6.20;94.10
55634;DHT22;41504;53.162;6.788;2023-02-19T08:07:33;6.40;94.10
55634;DHT22;41504;53.162;6.788;2023-02-19T08:09:59;6.10;94.00
55634;DHT22;41504;53.162;6.788;2023-02-19T08:12:44;6.10;94.00
55634;DHT22;41504;53.162;6.788;2023-02-19T08:15:28;6.10;94.10
55634;DHT22;41504;53.162;6.788;2023-02-19T08:17:54;6.10;94.00
55634;DHT22;41504;53.162;6.788;2023-02-19T08:20:19;6.10;94.10
55634;DHT22;41504;53.162;6.788;2023-02-19T08:22:45;6.20;93.90
55634;DHT22;41504;53.162;6.788;2023-02-19T08:25:11;6.20;93.90
55634;DHT22;41504;53.162;6.788;2023-02-19T08:27:36;6.20;93.70
55634;DHT22;41504;53.162;6.788;2023-02-19T08:30:02;6.10;93.60
55634;DHT22;41504;53.162;6.788;2023-02-19T08:32:28;6.10;93.60
55634;DHT22;41504;53.162;6.788;2023-02-19T08:34:54;6.10;93.70
55634;DHT22;41504;53.162;6.788;2023-02-19T08:37:20;6.20;93.80
55634;DHT22;41504;53.162;6.788;2023-02-19T08:39:45;6.30;93.70
55634;DHT22;41504;53.162;6.788;2023-02-19T08:42:11;6.30;93.70
55634;DHT22;41504;53.162;6.788;2023-02-19T08:44:37;6.40;93.60
55634;DHT22;41504;53.162;6.788;2023-02-19T08:47:03;6.40;93.60
55634;DHT22;41504;53.162;6.788;2023-02-19T08:49:29;6.40;93.60
55634;DHT22;41504;53.162;6.788;2023-02-19T08:51:55;6.50;93.40
55634;DHT22;41504;53.162;6.788;2023-02-19T08:54:20;6.40;93.30
55634;DHT22;41504;53.162;6.788;2023-02-19T08:56:46;6.40;93.40
55634;DHT22;41504;53.162;6.788;2023-02-19T08:59:12;6.60;93.40
55634;DHT22;41504;53.162;6.788;2023-02-19T09:01:37;6.40;93.30
55634;DHT22;41504;53.162;6.788;2023-02-19T09:04:03;6.50;93.30
55634;DHT22;41504;53.162;6.788;2023-02-19T09:06:29;6.60;93.00
55634;DHT22;41504;53.162;6.788;2023-02-19T09:08:55;6.50;92.80
55634;DHT22;41504;53.162;6.788;2023-02-19T09:11:21;6.60;92.80
55634;DHT22;41504;53.162;6.788;2023-02-19T09:13:46;6.60;93.10
55634;DHT22;41504;53.162;6.788;2023-02-19T09:16:12;6.60;92.80
55634;DHT22;41504;53.162;6.788;2023-02-19T09:18:38;6.70;92.30
55634;DHT22;41504;53.162;6.788;2023-02-19T09:21:04;6.80;92.40
55634;DHT22;41504;53.162;6.788;2023-02-19T09:23:35;6.60;92.60
55634;DHT22;41504;53.162;6.788;2023-02-19T09:26:01;6.60;92.60
55634;DHT22;41504;53.162;6.788;2023-02-19T09:28:31;6.60;92.50
55634;DHT22;41504;53.162;6.788;2023-02-19T09:31:03;6.70;92.50
55634;DHT22;41504;53.162;6.788;2023-02-19T09:33:29;6.70;92.30
55634;DHT22;41504;53.162;6.788;2023-02-19T09:35:58;6.70;92.30
55634;DHT22;41504;53.162;6.788;2023-02-19T09:38:24;6.60;92.50
55634;DHT22;41504;53.162;6.788;2023-02-19T09:40:49;6.70;92.50
55634;DHT22;41504;53.162;6.788;2023-02-19T09:43:17;6.80;92.40
55634;DHT22;41504;53.162;6.788;2023-02-19T09:45:45;6.90;92.30
55634;DHT22;41504;53.162;6.788;2023-02-19T09:48:11;6.90;91.90
55634;DHT22;41504;53.162;6.788;2023-02-19T09:50:40;6.90;91.90
55634;DHT22;41504;53.162;6.788;2023-02-19T09:53:19;6.90;91.80
55634;DHT22;41504;53.162;6.788;2023-02-19T09:55:46;6.80;91.50
55634;DHT22;41504;53.162;6.788;2023-02-19T09:58:26;6.90;91.80
55634;DHT22;41504;53.162;6.788;2023-02-19T10:00:56;6.90;91.60
55634;DHT22;41504;53.162;6.788;2023-02-19T10:03:35;7.00;91.70
55634;DHT22;41504;53.162;6.788;2023-02-19T10:06:12;7.10;91.80
55634;DHT22;41504;53.162;6.788;2023-02-19T10:08:40;7.30;91.80
55634;DHT22;41504;53.162;6.788;2023-02-19T10:11:07;7.40;91.00
55634;DHT22;41504;53.162;6.788;2023-02-19T10:13:45;7.50;91.20
55634;DHT22;41504;53.162;6.788;2023-02-19T10:16:16;7.60;90.30
55634;DHT22;41504;53.162;6.788;2023-02-19T10:18:44;7.50;90.50
55634;DHT22;41504;53.162;6.788;2023-02-19T10:21:15;7.40;89.80
55634;DHT22;41504;53.162;6.788;2023-02-19T10:23:42;7.30;89.20
55634;DHT22;41504;53.162;6.788;2023-02-19T10:26:08;7.20;89.70
55634;DHT22;41504;53.162;6.788;2023-02-19T10:28:35;7.10;90.10
55634;DHT22;41504;53.162;6.788;2023-02-19T10:31:16;7.00;90.20
55634;DHT22;41504;53.162;6.788;2023-02-19T10:33:50;7.00;90.50
55634;DHT22;41504;53.162;6.788;2023-02-19T10:38:53;7.10;90.80
55634;DHT22;41504;53.162;6.788;2023-02-19T10:41:21;7.20;90.90
55634;DHT22;41504;53.162;6.788;2023-02-19T10:44:06;7.40;90.90
55634;DHT22;41504;53.162;6.788;2023-02-19T10:46:42;7.50;90.60
55634;DHT22;41504;53.162;6.788;2023-02-19T10:51:51;7.60;88.60
55634;DHT22;41504;53.162;6.788;2023-02-19T10:54:29;7.60;88.50
55634;DHT22;41504;53.162;6.788;2023-02-19T10:57:23;7.60;87.70
55634;DHT22;41504;53.162;6.788;2023-02-19T11:00:23;7.60;87.60
55634;DHT22;41504;53.162;6.788;2023-02-19T11:02:48;7.60;88.70
55634;DHT22;41504;53.162;6.788;2023-02-19T11:05:17;7.70;88.30
55634;DHT22;41504;53.162;6.788;2023-02-19T11:10:25;7.80;88.50
55634;DHT22;41504;53.162;6.788;2023-02-19T11:12:54;7.90;88.50
55634;DHT22;41504;53.162;6.788;2023-02-19T11:15:25;7.90;88.00
55634;DHT22;41504;53.162;6.788;2023-02-19T11:20:53;8.00;88.50
55634;DHT22;41504;53.162;6.788;2023-02-19T11:23:33;8.00;88.40
55634;DHT22;41504;53.162;6.788;2023-02-19T11:26:03;8.00;87.80
55634;DHT22;41504;53.162;6.788;2023-02-19T11:28:39;8.00;87.70
55634;DHT22;41504;53.162;6.788;2023-02-19T11:33:58;7.80;87.40
55634;DHT22;41504;53.162;6.788;2023-02-19T11:36:43;7.80;87.80
55634;DHT22;41504;53.162;6.788;2023-02-19T11:42:02;7.80;87.50
55634;DHT22;41504;53.162;6.788;2023-02-19T11:49:50;7.70;87.30
55634;DHT22;41504;53.162;6.788;2023-02-19T11:57:46;7.90;87.40
55634;DHT22;41504;53.162;6.788;2023-02-19T12:00:27;8.00;85.20
55634;DHT22;41504;53.162;6.788;2023-02-19T12:11:15;8.00;85.10
55634;DHT22;41504;53.162;6.788;2023-02-19T12:22:29;8.30;84.10
55634;DHT22;41504;53.162;6.788;2023-02-19T12:25:13;8.30;84.40
55634;DHT22;41504;53.162;6.788;2023-02-19T12:38:43;8.30;82.50
55634;DHT22;41504;53.162;6.788;2023-02-19T12:41:42;8.30;82.60
55634;DHT22;41504;53.162;6.788;2023-02-19T12:44:21;8.20;82.50
55634;DHT22;41504;53.162;6.788;2023-02-19T12:46:58;8.20;83.10
55634;DHT22;41504;53.162;6.788;2023-02-19T12:49:34;8.30;83.20
55634;DHT22;41504;53.162;6.788;2023-02-19T12:52:19;8.30;83.10
55634;DHT22;41504;53.162;6.788;2023-02-19T12:54:50;8.40;83.20
55634;DHT22;41504;53.162;6.788;2023-02-19T12:57:28;8.50;82.90
55634;DHT22;41504;53.162;6.788;2023-02-19T13:00:00;8.50;82.40
55634;DHT22;41504;53.162;6.788;2023-02-19T13:02:31;8.60;81.10
55634;DHT22;41504;53.162;6.788;2023-02-19T13:05:05;8.60;80.20
55634;DHT22;41504;53.162;6.788;2023-02-19T13:12:53;8.40;79.60
55634;DHT22;41504;53.162;6.788;2023-02-19T13:15:28;8.40;78.50
55634;DHT22;41504;53.162;6.788;2023-02-19T13:17:56;8.30;78.90
55634;DHT22;41504;53.162;6.788;2023-02-19T13:20:39;8.30;78.90
55634;DHT22;41504;53.162;6.788;2023-02-19T13:36:46;8.40;80.00
55634;DHT22;41504;53.162;6.788;2023-02-19T13:39:14;8.40;79.60
55634;DHT22;41504;53.162;6.788;2023-02-19T13:41:47;8.30;79.60
55634;DHT22;41504;53.162;6.788;2023-02-19T13:44:26;8.30;79.30
55634;DHT22;41504;53.162;6.788;2023-02-19T13:46:52;8.30;76.00
55634;DHT22;41504;53.162;6.788;2023-02-19T13:49:38;8.30;78.90
55634;DHT22;41504;53.162;6.788;2023-02-19T14:01:09;8.60;77.80
55634;DHT22;41504;53.162;6.788;2023-02-19T14:03:52;8.60;79.00
55634;DHT22;41504;53.162;6.788;2023-02-19T14:06:19;8.70;77.80
55634;DHT22;41504;53.162;6.788;2023-02-19T14:11:15;8.70;79.10
55634;DHT22;41504;53.162;6.788;2023-02-19T14:19:03;9.00;76.50
55634;DHT22;41504;53.162;6.788;2023-02-19T14:21:37;9.00;76.80
55634;DHT22;41504;53.162;6.788;2023-02-19T14:24:03;9.00;77.60
55634;DHT22;41504;53.162;6.788;2023-02-19T14:26:31;9.10;75.70
55634;DHT22;41504;53.162;6.788;2023-02-19T14:28:57;9.00;76.80
55634;DHT22;41504;53.162;6.788;2023-02-19T14:31:30;8.90;76.70
55634;DHT22;41504;53.162;6.788;2023-02-19T14:34:15;8.80;77.20
55634;DHT22;41504;53.162;6.788;2023-02-19T14:36:58;8.80;76.70
55634;DHT22;41504;53.162;6.788;2023-02-19T14:39:25;8.60;77.90
55634;DHT22;41504;53.162;6.788;2023-02-19T14:44:55;8.50;78.00
55634;DHT22;41504;53.162;6.788;2023-02-19T14:47:24;8.50;78.60
55634;DHT22;41504;53.162;6.788;2023-02-19T14:49:58;8.50;78.70
55634;DHT22;41504;53.162;6.788;2023-02-19T14:52:35;8.50;78.60
55634;DHT22;41504;53.162;6.788;2023-02-19T14:57:40;8.50;78.70
55634;DHT22;41504;53.162;6.788;2023-02-19T15:00:23;8.60;78.80
55634;DHT22;41504;53.162;6.788;2023-02-19T15:02:51;8.60;78.60
55634;DHT22;41504;53.162;6.788;2023-02-19T15:05:31;8.70;78.90
55634;DHT22;41504;53.162;6.788;2023-02-19T15:07:59;8.80;77.90
55634;DHT22;41504;53.162;6.788;2023-02-19T15:10:28;8.80;77.60
55634;DHT22;41504;53.162;6.788;2023-02-19T15:13:00;8.70;77.90
55634;DHT22;41504;53.162;6.788;2023-02-19T15:15:34;8.70;78.10
55634;DHT22;41504;53.162;6.788;2023-02-19T15:18:02;8.70;78.20
55634;DHT22;41504;53.162;6.788;2023-02-19T15:20:31;8.70;78.40
55634;DHT22;41504;53.162;6.788;2023-02-19T15:22:58;8.60;79.10
55634;DHT22;41504;53.162;6.788;2023-02-19T15:25:37;8.60;78.90
55634;DHT22;41504;53.162;6.788;2023-02-19T15:31:33;8.50;78.60
55634;DHT22;41504;53.162;6.788;2023-02-19T15:33:34;8.50;78.60
55634;DHT22;41504;53.162;6.788;2023-02-19T15:36:03;8.50;78.60
55634;DHT22;41504;53.162;6.788;2023-02-19T15:38:30;8.50;78.30
55634;DHT22;41504;53.162;6.788;2023-02-19T15:40:55;8.40;78.40
55634;DHT22;41504;53.162;6.788;2023-02-19T15:46:03;8.40;79.00
55634;DHT22;41504;53.162;6.788;2023-02-19T15:48:44;8.30;79.30
55634;DHT22;41504;53.162;6.788;2023-02-19T15:51:24;8.30;79.30
55634;DHT22;41504;53.162;6.788;2023-02-19T15:53:56;8.20;79.70
55634;DHT22;41504;53.162;6.788;2023-02-19T15:56:31;8.20;79.20
55634;DHT22;41504;53.162;6.788;2023-02-19T15:59:06;8.20;78.70
55634;DHT22;41504;53.162;6.788;2023-02-19T16:01:37;8.10;78.90
55634;DHT22;41504;53.162;6.788;2023-02-19T16:04:13;8.00;79.70
55634;DHT22;41504;53.162;6.788;2023-02-19T16:07:27;8.10;79.50
55634;DHT22;41504;53.162;6.788;2023-02-19T16:10:20;8.10;79.60
55634;DHT22;41504;53.162;6.788;2023-02-19T16:12:57;8.00;79.70
55634;DHT22;41504;53.162;6.788;2023-02-19T16:15:24;8.00;80.10
55634;DHT22;41504;53.162;6.788;2023-02-19T16:17:50;8.00;80.10
55634;DHT22;41504;53.162;6.788;2023-02-19T16:20:27;8.00;80.10
55634;DHT22;41504;53.162;6.788;2023-02-19T16:23:09;8.00;80.00
55634;DHT22;41504;53.162;6.788;2023-02-19T16:25:40;7.90;79.50
55634;DHT22;41504;53.162;6.788;2023-02-19T16:28:38;7.90;80.30
55634;DHT22;41504;53.162;6.788;2023-02-19T16:31:07;7.80;78.50
55634;DHT22;41504;53.162;6.788;2023-02-19T16:33:44;7.70;79.10
55634;DHT22;41504;53.162;6.788;2023-02-19T16:36:22;7.60;79.50
55634;DHT22;41504;53.162;6.788;2023-02-19T16:46:54;7.50;79.30
55634;DHT22;41504;53.162;6.788;2023-02-19T16:49:22;7.40;79.20
55634;DHT22;41504;53.162;6.788;2023-02-19T16:51:49;7.40;79.50
55634;DHT22;41504;53.162;6.788;2023-02-19T16:54:15;7.30;79.60
55634;DHT22;41504;53.162;6.788;2023-02-19T16:56:41;7.40;79.40
55634;DHT22;41504;53.162;6.788;2023-02-19T16:59:07;7.30;79.20
55634;DHT22;41504;53.162;6.788;2023-02-19T17:01:34;7.20;79.60
55634;DHT22;41504;53.162;6.788;2023-02-19T17:04:03;7.20;80.00
55634;DHT22;41504;53.162;6.788;2023-02-19T17:06:30;7.20;80.30
55634;DHT22;41504;53.162;6.788;2023-02-19T17:08:57;7.20;80.40
55634;DHT22;41504;53.162;6.788;2023-02-19T17:11:23;7.20;80.50
55634;DHT22;41504;53.162;6.788;2023-02-19T17:13:49;7.10;80.70
55634;DHT22;41504;53.162;6.788;2023-02-19T17:16:24;7.10;80.90
55634;DHT22;41504;53.162;6.788;2023-02-19T17:18:52;7.20;81.10
55634;DHT22;41504;53.162;6.788;2023-02-19T17:21:26;7.20;81.30
55634;DHT22;41504;53.162;6.788;2023-02-19T17:23:52;7.10;81.50
55634;DHT22;41504;53.162;6.788;2023-02-19T17:26:27;7.10;81.80
55634;DHT22;41504;53.162;6.788;2023-02-19T17:28:58;7.10;81.80
55634;DHT22;41504;53.162;6.788;2023-02-19T17:31:24;7.10;81.90
55634;DHT22;41504;53.162;6.788;2023-02-19T17:33:50;7.10;82.10
55634;DHT22;41504;53.162;6.788;2023-02-19T17:36:19;7.00;82.20
55634;DHT22;41504;53.162;6.788;2023-02-19T17:38:45;7.00;82.60
55634;DHT22;41504;53.162;6.788;2023-02-19T17:41:11;6.90;82.80
55634;DHT22;41504;53.162;6.788;2023-02-19T17:43:37;6.90;82.90
55634;DHT22;41504;53.162;6.788;2023-02-19T17:46:02;6.90;83.10
55634;DHT22;41504;53.162;6.788;2023-02-19T17:48:28;6.90;83.20
55634;DHT22;41504;53.162;6.788;2023-02-19T17:50:54;6.90;83.40
55634;DHT22;41504;53.162;6.788;2023-02-19T17:53:20;6.80;83.60
55634;DHT22;41504;53.162;6.788;2023-02-19T17:55:46;6.80;83.80
55634;DHT22;41504;53.162;6.788;2023-02-19T17:58:12;6.80;83.90
55634;DHT22;41504;53.162;6.788;2023-02-19T18:00:38;6.70;84.00
55634;DHT22;41504;53.162;6.788;2023-02-19T18:03:04;6.70;84.20
55634;DHT22;41504;53.162;6.788;2023-02-19T18:05:31;6.80;84.40
55634;DHT22;41504;53.162;6.788;2023-02-19T18:07:57;6.60;84.30
55634;DHT22;41504;53.162;6.788;2023-02-19T18:10:23;6.50;84.40
55634;DHT22;41504;53.162;6.788;2023-02-19T18:12:50;6.50;84.60
55634;DHT22;41504;53.162;6.788;2023-02-19T18:15:21;6.50;84.70
55634;DHT22;41504;53.162;6.788;2023-02-19T18:17:48;6.50;84.70
55634;DHT22;41504;53.162;6.788;2023-02-19T18:20:15;6.50;84.70
55634;DHT22;41504;53.162;6.788;2023-02-19T18:22:41;6.50;84.70
55634;DHT22;41504;53.162;6.788;2023-02-19T18:25:08;6.50;84.90